Wellman, Texas
Current Conditions -  °F | °C
As of 11:35 AM on Wednesday 26 Nov 2014 (Local Time) from KGNC Reporting Station
Clear Clear  
Wind Chill: 53°   Ceiling: Unl
Heat Index: 53°   Visibility: 10mi
Dew Point: 28°   Wind: 10mph
Humidity: 39%   Direction: 30°NNE
Pressure: 30.31"   Gusts: 18mph
Location:  33.05°N, 102.43°W
Report Text: KGNC 261735Z AUTO 03009G16KT 10SM CLR 11/M02 A3031 RMK AO2 T01141021
Loading
Personal Weather Stations






























Interactive Weather Map New forecast layout! Learn more

10-Day Weather Forecast

Advertisements
Track Severe Weather on mobile